Airfield :
LOGIN :

Register | Disclaimer

   EN    FR    IT 

 










Legend :    VFR   Marginal VFR   IFR   Intensive IFR   Very Intensive IFR
Visi :
Ceiling :
>= 8 km
>= 3000ft
5 to 8 km
1000 to 3000 ft
1500m to 5 km
500 to 1000 ft
800 to 1500m
200 to 500 ft
< 800m
< 200 ft
Symbols :   Thunderstorms  Fog  Heavy snow  Heavy precipitations  Wind > 20 kt
SIGMETs :     Misc.  Thunderstorms  Icing  Turbulence  Mountain Waves  Volcanic Ashes







- Airport Elevation : 876 ft
- IATA code : MBX


LJMB - Maribor

CURRENT METAR :
  • 181000Z 02005KT 9999 FEW033 BKN040 04/M02 Q1025

EXPIRED METARs :
  • 180930Z 03004KT 360V060 9999 FEW026 BKN049 03/M02 Q1026
  • 180900Z 03004KT 350V060 9999 FEW023 BKN053 03/M02 Q1026
  • 180830Z 03005KT 010V070 9999 FEW030 BKN056 03/M02 Q1026
  • 180800Z 03004KT 010V070 9999 FEW030 BKN056 03/M02 Q1026
  • 180730Z 01003KT 9999 SCT040 BKN060 03/M02 Q1027

TAF TAF LJMB
Valid from the 18 at 09:00 until the 19 at 09:00 UTC


180800Z 1809/1909 36005KT 9999 FEW040 BKN055
TEMPO 1809/1906 36010KT
TEMPO 1809/1821 BKN035
PROB30
TEMPO 1809/1824 -RASN
BECMG 1821/1824 7000 BKN035 OVC050
TEMPO 1900/1909 3500 -SN BR BKN020 OVC040
No reported NOTAMs for that airfield.
1 SIGMET reported for the Ljubljana FIR (LJLA) :
 
Severe turbulence
LJLA SIGMET 2 VALID 180800/181100 LJLJ
LJLA LJUBLJANA FIR SEV TURB FCST SW OF LINE N4611 E01330 - N4535 E01435 SFC/6000FT STNR NC=



MET'MAP, your aeronautical weather chart ! - Copyright ORBIFLY December 2007 - Disclaimer

ORBIFLY MET'MAP TEAM :

Programming & Development : Alexandra Zaïnal
Concept & Development : Baudouin d'Aumeries
Co-Development & Prog : Marc-Olivier Méhu
Technical & hardware support : Manuel Goepfert

Contact : metmap@orbifly.com




SOURCES & CREDITS :

   NOAA